Terminal Aerodrome Forecast
Issued by NWS Wilmington, OH

Current Version | Previous Version | Graphics & Text | Print | Product List | Glossary On
Versions: 1 2 3 4 5 6 7 8 9 10 11 12 13 14 15 16 17
704
FTUS41 KILN 190537
TAFILN
TAF
KILN 190537Z 1906/2006 VRB02KT P6SM SKC
     FM190800 00000KT 5SM BR SCT050
     FM191300 28006KT P6SM SCT050
     FM200000 VRB03KT P6SM SCT150=

USA.gov is the U.S. government's official web portal to all federal, state and local government web resources and services.